sensor_id;sensor_type;location;lat;lon;timestamp;P1;durP1;ratioP1;P2;durP2;ratioP2
43552;SDS011;29153;42.696;23.218;2023-01-08T00:01:17;18.77;;;7.42;;
43552;SDS011;29153;42.696;23.218;2023-01-08T00:03:45;18.55;;;9.03;;
43552;SDS011;29153;42.696;23.218;2023-01-08T00:06:15;13.55;;;6.37;;
43552;SDS011;29153;42.696;23.218;2023-01-08T00:08:44;13.40;;;5.97;;
43552;SDS011;29153;42.696;23.218;2023-01-08T00:11:12;15.10;;;6.37;;
43552;SDS011;29153;42.696;23.218;2023-01-08T00:13:40;14.65;;;6.62;;
43552;SDS011;29153;42.696;23.218;2023-01-08T00:16:11;21.73;;;10.10;;
43552;SDS011;29153;42.696;23.218;2023-01-08T00:18:41;13.62;;;6.42;;
43552;SDS011;29153;42.696;23.218;2023-01-08T00:21:10;23.73;;;10.18;;
43552;SDS011;29153;42.696;23.218;2023-01-08T00:23:38;17.05;;;7.97;;
43552;SDS011;29153;42.696;23.218;2023-01-08T00:26:07;17.75;;;8.13;;
43552;SDS011;29153;42.696;23.218;2023-01-08T00:28:36;26.77;;;12.78;;
43552;SDS011;29153;42.696;23.218;2023-01-08T00:31:05;27.77;;;13.00;;
43552;SDS011;29153;42.696;23.218;2023-01-08T00:33:35;21.35;;;10.25;;
43552;SDS011;29153;42.696;23.218;2023-01-08T00:36:07;21.40;;;10.30;;
43552;SDS011;29153;42.696;23.218;2023-01-08T00:38:39;18.87;;;8.20;;
43552;SDS011;29153;42.696;23.218;2023-01-08T00:41:07;16.42;;;7.58;;
43552;SDS011;29153;42.696;23.218;2023-01-08T00:43:35;20.80;;;7.85;;
43552;SDS011;29153;42.696;23.218;2023-01-08T00:46:03;15.08;;;6.67;;
43552;SDS011;29153;42.696;23.218;2023-01-08T00:48:30;15.32;;;7.10;;
43552;SDS011;29153;42.696;23.218;2023-01-08T00:51:05;21.55;;;8.93;;
43552;SDS011;29153;42.696;23.218;2023-01-08T00:53:34;18.70;;;7.67;;
43552;SDS011;29153;42.696;23.218;2023-01-08T00:56:07;24.57;;;9.90;;
43552;SDS011;29153;42.696;23.218;2023-01-08T00:58:36;27.15;;;10.18;;
43552;SDS011;29153;42.696;23.218;2023-01-08T01:01:13;20.17;;;8.30;;
43552;SDS011;29153;42.696;23.218;2023-01-08T01:03:36;19.40;;;7.00;;
43552;SDS011;29153;42.696;23.218;2023-01-08T01:06:03;18.12;;;7.17;;
43552;SDS011;29153;42.696;23.218;2023-01-08T01:08:32;16.77;;;8.08;;
43552;SDS011;29153;42.696;23.218;2023-01-08T01:11:02;18.42;;;8.25;;
43552;SDS011;29153;42.696;23.218;2023-01-08T01:13:30;15.48;;;7.85;;
43552;SDS011;29153;42.696;23.218;2023-01-08T01:16:03;23.92;;;8.30;;
43552;SDS011;29153;42.696;23.218;2023-01-08T01:18:27;17.77;;;8.08;;
43552;SDS011;29153;42.696;23.218;2023-01-08T01:20:56;17.15;;;7.83;;
43552;SDS011;29153;42.696;23.218;2023-01-08T01:23:24;18.20;;;7.30;;
43552;SDS011;29153;42.696;23.218;2023-01-08T01:25:51;16.80;;;7.67;;
43552;SDS011;29153;42.696;23.218;2023-01-08T01:28:18;18.40;;;7.25;;
43552;SDS011;29153;42.696;23.218;2023-01-08T01:30:51;13.78;;;7.45;;
43552;SDS011;29153;42.696;23.218;2023-01-08T01:33:22;15.08;;;7.10;;
43552;SDS011;29153;42.696;23.218;2023-01-08T01:35:57;17.87;;;7.55;;
43552;SDS011;29153;42.696;23.218;2023-01-08T01:38:25;15.58;;;8.23;;
43552;SDS011;29153;42.696;23.218;2023-01-08T01:40:52;17.32;;;7.25;;
43552;SDS011;29153;42.696;23.218;2023-01-08T01:43:37;14.47;;;7.33;;
43552;SDS011;29153;42.696;23.218;2023-01-08T01:46:03;22.95;;;7.05;;
43552;SDS011;29153;42.696;23.218;2023-01-08T01:48:33;19.65;;;7.60;;
43552;SDS011;29153;42.696;23.218;2023-01-08T01:51:00;15.63;;;7.50;;
43552;SDS011;29153;42.696;23.218;2023-01-08T01:53:29;23.90;;;7.58;;
43552;SDS011;29153;42.696;23.218;2023-01-08T01:55:59;17.02;;;6.33;;
43552;SDS011;29153;42.696;23.218;2023-01-08T01:58:29;15.80;;;7.45;;
43552;SDS011;29153;42.696;23.218;2023-01-08T02:00:59;12.68;;;6.95;;
43552;SDS011;29153;42.696;23.218;2023-01-08T02:03:29;17.80;;;6.85;;
43552;SDS011;29153;42.696;23.218;2023-01-08T02:05:59;16.42;;;7.03;;
43552;SDS011;29153;42.696;23.218;2023-01-08T02:11:31;17.65;;;7.12;;
43552;SDS011;29153;42.696;23.218;2023-01-08T02:16:54;13.88;;;6.08;;
43552;SDS011;29153;42.696;23.218;2023-01-08T02:22:02;16.25;;;6.17;;
43552;SDS011;29153;42.696;23.218;2023-01-08T02:27:10;14.60;;;5.95;;
43552;SDS011;29153;42.696;23.218;2023-01-08T02:29:39;14.25;;;5.62;;
43552;SDS011;29153;42.696;23.218;2023-01-08T02:32:07;16.45;;;5.75;;
43552;SDS011;29153;42.696;23.218;2023-01-08T02:34:35;14.23;;;5.87;;
43552;SDS011;29153;42.696;23.218;2023-01-08T02:37:02;12.03;;;5.17;;
43552;SDS011;29153;42.696;23.218;2023-01-08T02:42:04;16.10;;;6.33;;
43552;SDS011;29153;42.696;23.218;2023-01-08T02:47:04;13.35;;;5.22;;
43552;SDS011;29153;42.696;23.218;2023-01-08T02:49:34;14.30;;;5.83;;
43552;SDS011;29153;42.696;23.218;2023-01-08T02:52:04;12.03;;;5.42;;
43552;SDS011;29153;42.696;23.218;2023-01-08T02:54:34;13.35;;;5.53;;
43552;SDS011;29153;42.696;23.218;2023-01-08T02:57:08;13.10;;;5.50;;
43552;SDS011;29153;42.696;23.218;2023-01-08T02:59:35;11.83;;;5.45;;
43552;SDS011;29153;42.696;23.218;2023-01-08T03:02:05;16.15;;;6.15;;
43552;SDS011;29153;42.696;23.218;2023-01-08T03:04:35;12.80;;;5.53;;
43552;SDS011;29153;42.696;23.218;2023-01-08T03:07:03;9.65;;;4.47;;
43552;SDS011;29153;42.696;23.218;2023-01-08T03:09:31;12.23;;;5.67;;
43552;SDS011;29153;42.696;23.218;2023-01-08T03:12:06;12.35;;;5.45;;
43552;SDS011;29153;42.696;23.218;2023-01-08T03:14:31;11.45;;;4.45;;
43552;SDS011;29153;42.696;23.218;2023-01-08T03:17:03;12.63;;;5.17;;
43552;SDS011;29153;42.696;23.218;2023-01-08T03:19:35;8.93;;;4.30;;
43552;SDS011;29153;42.696;23.218;2023-01-08T03:22:13;12.78;;;4.72;;
43552;SDS011;29153;42.696;23.218;2023-01-08T03:24:38;10.08;;;4.53;;
43552;SDS011;29153;42.696;23.218;2023-01-08T03:27:09;10.20;;;4.65;;
43552;SDS011;29153;42.696;23.218;2023-01-08T03:29:39;12.35;;;4.95;;
43552;SDS011;29153;42.696;23.218;2023-01-08T03:32:14;9.65;;;4.87;;
43552;SDS011;29153;42.696;23.218;2023-01-08T03:34:45;12.30;;;4.67;;
43552;SDS011;29153;42.696;23.218;2023-01-08T03:37:15;10.38;;;4.08;;
43552;SDS011;29153;42.696;23.218;2023-01-08T03:42:42;9.58;;;3.15;;
43552;SDS011;29153;42.696;23.218;2023-01-08T03:45:10;8.95;;;4.17;;
43552;SDS011;29153;42.696;23.218;2023-01-08T03:47:38;17.00;;;5.83;;
43552;SDS011;29153;42.696;23.218;2023-01-08T03:50:08;8.65;;;3.98;;
43552;SDS011;29153;42.696;23.218;2023-01-08T03:52:37;10.45;;;4.45;;
43552;SDS011;29153;42.696;23.218;2023-01-08T03:55:05;7.45;;;3.35;;
43552;SDS011;29153;42.696;23.218;2023-01-08T03:57:32;9.50;;;3.47;;
43552;SDS011;29153;42.696;23.218;2023-01-08T04:00:00;8.75;;;3.05;;
43552;SDS011;29153;42.696;23.218;2023-01-08T04:02:27;9.08;;;3.25;;
43552;SDS011;29153;42.696;23.218;2023-01-08T04:04:55;9.23;;;3.45;;
43552;SDS011;29153;42.696;23.218;2023-01-08T04:07:22;10.15;;;3.27;;
43552;SDS011;29153;42.696;23.218;2023-01-08T04:09:50;10.55;;;3.90;;
43552;SDS011;29153;42.696;23.218;2023-01-08T04:12:17;8.25;;;3.80;;
43552;SDS011;29153;42.696;23.218;2023-01-08T04:14:45;11.90;;;4.60;;
43552;SDS011;29153;42.696;23.218;2023-01-08T04:17:12;8.88;;;3.52;;
43552;SDS011;29153;42.696;23.218;2023-01-08T04:19:40;9.58;;;3.40;;
43552;SDS011;29153;42.696;23.218;2023-01-08T04:22:10;8.45;;;3.83;;
43552;SDS011;29153;42.696;23.218;2023-01-08T04:24:38;7.75;;;3.62;;
43552;SDS011;29153;42.696;23.218;2023-01-08T04:27:05;7.95;;;3.90;;
43552;SDS011;29153;42.696;23.218;2023-01-08T04:29:33;10.05;;;4.10;;
43552;SDS011;29153;42.696;23.218;2023-01-08T04:32:00;8.98;;;3.80;;
43552;SDS011;29153;42.696;23.218;2023-01-08T04:34:28;10.48;;;3.92;;
43552;SDS011;29153;42.696;23.218;2023-01-08T04:36:55;17.20;;;4.55;;
43552;SDS011;29153;42.696;23.218;2023-01-08T04:39:23;13.65;;;4.75;;
43552;SDS011;29153;42.696;23.218;2023-01-08T04:41:50;10.08;;;4.65;;
43552;SDS011;29153;42.696;23.218;2023-01-08T04:44:18;8.65;;;3.77;;
43552;SDS011;29153;42.696;23.218;2023-01-08T04:46:45;8.80;;;4.42;;
43552;SDS011;29153;42.696;23.218;2023-01-08T04:49:13;8.25;;;3.55;;
43552;SDS011;29153;42.696;23.218;2023-01-08T04:51:40;9.75;;;3.77;;
43552;SDS011;29153;42.696;23.218;2023-01-08T04:54:08;11.15;;;4.28;;
43552;SDS011;29153;42.696;23.218;2023-01-08T04:56:35;12.43;;;3.80;;
43552;SDS011;29153;42.696;23.218;2023-01-08T04:59:03;9.35;;;4.58;;
43552;SDS011;29153;42.696;23.218;2023-01-08T05:01:30;8.68;;;3.27;;
43552;SDS011;29153;42.696;23.218;2023-01-08T05:03:59;7.53;;;3.95;;
43552;SDS011;29153;42.696;23.218;2023-01-08T05:06:29;8.90;;;3.83;;
43552;SDS011;29153;42.696;23.218;2023-01-08T05:08:57;9.53;;;3.92;;
43552;SDS011;29153;42.696;23.218;2023-01-08T05:11:25;10.25;;;4.60;;
43552;SDS011;29153;42.696;23.218;2023-01-08T05:13:53;9.40;;;3.50;;
43552;SDS011;29153;42.696;23.218;2023-01-08T05:16:21;8.83;;;3.52;;
43552;SDS011;29153;42.696;23.218;2023-01-08T05:18:49;10.78;;;4.28;;
43552;SDS011;29153;42.696;23.218;2023-01-08T05:21:16;7.10;;;3.65;;
43552;SDS011;29153;42.696;23.218;2023-01-08T05:23:45;9.18;;;3.70;;
43552;SDS011;29153;42.696;23.218;2023-01-08T05:26:13;8.28;;;3.77;;
43552;SDS011;29153;42.696;23.218;2023-01-08T05:28:41;10.28;;;3.87;;
43552;SDS011;29153;42.696;23.218;2023-01-08T05:31:09;8.65;;;3.55;;
43552;SDS011;29153;42.696;23.218;2023-01-08T05:33:37;10.60;;;3.37;;
43552;SDS011;29153;42.696;23.218;2023-01-08T05:36:06;8.53;;;3.33;;
43552;SDS011;29153;42.696;23.218;2023-01-08T05:38:34;11.90;;;4.87;;
43552;SDS011;29153;42.696;23.218;2023-01-08T05:41:02;11.30;;;4.30;;
43552;SDS011;29153;42.696;23.218;2023-01-08T05:43:31;10.40;;;3.47;;
43552;SDS011;29153;42.696;23.218;2023-01-08T05:45:59;8.63;;;4.33;;
43552;SDS011;29153;42.696;23.218;2023-01-08T05:48:28;11.75;;;5.08;;
43552;SDS011;29153;42.696;23.218;2023-01-08T05:50:57;7.90;;;4.03;;
43552;SDS011;29153;42.696;23.218;2023-01-08T05:53:25;10.65;;;4.42;;
43552;SDS011;29153;42.696;23.218;2023-01-08T05:55:57;12.23;;;4.72;;
43552;SDS011;29153;42.696;23.218;2023-01-08T05:58:25;9.85;;;4.62;;
43552;SDS011;29153;42.696;23.218;2023-01-08T06:00:53;10.00;;;4.85;;
43552;SDS011;29153;42.696;23.218;2023-01-08T06:03:22;10.85;;;5.08;;
43552;SDS011;29153;42.696;23.218;2023-01-08T06:05:49;11.90;;;4.65;;
43552;SDS011;29153;42.696;23.218;2023-01-08T06:08:17;10.72;;;4.55;;
43552;SDS011;29153;42.696;23.218;2023-01-08T06:10:45;9.00;;;4.50;;
43552;SDS011;29153;42.696;23.218;2023-01-08T06:13:12;8.25;;;4.50;;
43552;SDS011;29153;42.696;23.218;2023-01-08T06:15:40;10.78;;;4.50;;
43552;SDS011;29153;42.696;23.218;2023-01-08T06:18:07;14.23;;;5.78;;
43552;SDS011;29153;42.696;23.218;2023-01-08T06:20:35;11.50;;;4.90;;
43552;SDS011;29153;42.696;23.218;2023-01-08T06:23:02;13.32;;;5.47;;
43552;SDS011;29153;42.696;23.218;2023-01-08T06:25:30;12.53;;;4.90;;
43552;SDS011;29153;42.696;23.218;2023-01-08T06:27:57;14.40;;;5.33;;
43552;SDS011;29153;42.696;23.218;2023-01-08T06:30:25;11.08;;;4.97;;
43552;SDS011;29153;42.696;23.218;2023-01-08T06:32:56;10.03;;;5.10;;
43552;SDS011;29153;42.696;23.218;2023-01-08T06:35:27;13.62;;;5.72;;
43552;SDS011;29153;42.696;23.218;2023-01-08T06:37:55;14.70;;;5.65;;
43552;SDS011;29153;42.696;23.218;2023-01-08T06:40:22;13.18;;;5.53;;
43552;SDS011;29153;42.696;23.218;2023-01-08T06:42:50;15.15;;;5.55;;
43552;SDS011;29153;42.696;23.218;2023-01-08T06:45:17;12.18;;;5.28;;
43552;SDS011;29153;42.696;23.218;2023-01-08T06:47:45;13.88;;;4.80;;
43552;SDS011;29153;42.696;23.218;2023-01-08T06:50:13;13.58;;;4.92;;
43552;SDS011;29153;42.696;23.218;2023-01-08T06:52:40;18.05;;;6.20;;
43552;SDS011;29153;42.696;23.218;2023-01-08T06:55:08;22.80;;;9.65;;
43552;SDS011;29153;42.696;23.218;2023-01-08T06:57:35;26.10;;;9.45;;
43552;SDS011;29153;42.696;23.218;2023-01-08T07:00:05;23.92;;;8.73;;
43552;SDS011;29153;42.696;23.218;2023-01-08T07:02:33;54.63;;;19.87;;
43552;SDS011;29153;42.696;23.218;2023-01-08T07:05:00;56.35;;;20.82;;
43552;SDS011;29153;42.696;23.218;2023-01-08T07:07:28;60.67;;;24.32;;
43552;SDS011;29153;42.696;23.218;2023-01-08T07:09:55;31.05;;;13.05;;
43552;SDS011;29153;42.696;23.218;2023-01-08T07:12:23;48.85;;;18.40;;
43552;SDS011;29153;42.696;23.218;2023-01-08T07:14:51;22.13;;;10.20;;
43552;SDS011;29153;42.696;23.218;2023-01-08T07:17:18;22.62;;;9.68;;
43552;SDS011;29153;42.696;23.218;2023-01-08T07:19:46;24.43;;;10.23;;
43552;SDS011;29153;42.696;23.218;2023-01-08T07:22:13;18.35;;;9.45;;
43552;SDS011;29153;42.696;23.218;2023-01-08T07:24:41;25.85;;;11.43;;
43552;SDS011;29153;42.696;23.218;2023-01-08T07:27:08;30.37;;;12.85;;
43552;SDS011;29153;42.696;23.218;2023-01-08T07:29:36;30.55;;;13.60;;
43552;SDS011;29153;42.696;23.218;2023-01-08T07:32:03;39.13;;;16.32;;
43552;SDS011;29153;42.696;23.218;2023-01-08T07:34:31;44.45;;;18.25;;
43552;SDS011;29153;42.696;23.218;2023-01-08T07:36:59;36.68;;;19.05;;
43552;SDS011;29153;42.696;23.218;2023-01-08T07:39:27;45.63;;;21.07;;
43552;SDS011;29153;42.696;23.218;2023-01-08T07:41:55;53.10;;;24.63;;
43552;SDS011;29153;42.696;23.218;2023-01-08T07:44:22;61.45;;;29.98;;
43552;SDS011;29153;42.696;23.218;2023-01-08T07:46:50;66.07;;;32.53;;
43552;SDS011;29153;42.696;23.218;2023-01-08T07:49:17;61.48;;;29.90;;
43552;SDS011;29153;42.696;23.218;2023-01-08T07:51:45;61.15;;;27.75;;
43552;SDS011;29153;42.696;23.218;2023-01-08T07:54:16;67.85;;;30.92;;
43552;SDS011;29153;42.696;23.218;2023-01-08T07:56:44;72.25;;;34.05;;
43552;SDS011;29153;42.696;23.218;2023-01-08T07:59:11;77.30;;;36.58;;
43552;SDS011;29153;42.696;23.218;2023-01-08T08:01:39;69.32;;;33.67;;
43552;SDS011;29153;42.696;23.218;2023-01-08T08:04:06;183.22;;;61.42;;
43552;SDS011;29153;42.696;23.218;2023-01-08T08:06:33;208.93;;;80.17;;
43552;SDS011;29153;42.696;23.218;2023-01-08T08:09:01;83.75;;;39.27;;
43552;SDS011;29153;42.696;23.218;2023-01-08T08:11:29;78.72;;;37.20;;
43552;SDS011;29153;42.696;23.218;2023-01-08T08:13:56;70.92;;;35.48;;
43552;SDS011;29153;42.696;23.218;2023-01-08T08:16:24;76.77;;;35.00;;
43552;SDS011;29153;42.696;23.218;2023-01-08T08:18:51;71.28;;;35.63;;
43552;SDS011;29153;42.696;23.218;2023-01-08T08:21:18;72.80;;;34.90;;
43552;SDS011;29153;42.696;23.218;2023-01-08T08:23:47;72.15;;;35.55;;
43552;SDS011;29153;42.696;23.218;2023-01-08T08:26:15;77.32;;;36.75;;
43552;SDS011;29153;42.696;23.218;2023-01-08T08:28:42;73.80;;;36.15;;
43552;SDS011;29153;42.696;23.218;2023-01-08T08:31:10;80.50;;;35.43;;
43552;SDS011;29153;42.696;23.218;2023-01-08T08:33:37;73.42;;;35.75;;
43552;SDS011;29153;42.696;23.218;2023-01-08T08:36:05;74.85;;;34.20;;
43552;SDS011;29153;42.696;23.218;2023-01-08T08:38:33;79.05;;;35.73;;
43552;SDS011;29153;42.696;23.218;2023-01-08T08:41:03;83.22;;;36.88;;
43552;SDS011;29153;42.696;23.218;2023-01-08T08:43:30;96.65;;;43.70;;
43552;SDS011;29153;42.696;23.218;2023-01-08T08:45:58;102.75;;;46.77;;
43552;SDS011;29153;42.696;23.218;2023-01-08T08:48:25;106.78;;;51.23;;
43552;SDS011;29153;42.696;23.218;2023-01-08T08:50:53;111.60;;;47.30;;
43552;SDS011;29153;42.696;23.218;2023-01-08T08:53:20;101.05;;;48.60;;
43552;SDS011;29153;42.696;23.218;2023-01-08T08:55:48;89.72;;;41.85;;
43552;SDS011;29153;42.696;23.218;2023-01-08T08:58:15;90.47;;;42.60;;
43552;SDS011;29153;42.696;23.218;2023-01-08T09:00:43;76.30;;;34.65;;
43552;SDS011;29153;42.696;23.218;2023-01-08T09:03:13;65.95;;;31.75;;
43552;SDS011;29153;42.696;23.218;2023-01-08T09:05:41;65.87;;;32.30;;
43552;SDS011;29153;42.696;23.218;2023-01-08T09:08:10;68.90;;;32.23;;
43552;SDS011;29153;42.696;23.218;2023-01-08T09:10:38;67.22;;;32.10;;
43552;SDS011;29153;42.696;23.218;2023-01-08T09:13:06;64.62;;;31.17;;
43552;SDS011;29153;42.696;23.218;2023-01-08T09:15:35;58.75;;;30.80;;
43552;SDS011;29153;42.696;23.218;2023-01-08T09:18:03;61.53;;;31.35;;
43552;SDS011;29153;42.696;23.218;2023-01-08T09:20:31;71.30;;;31.70;;
43552;SDS011;29153;42.696;23.218;2023-01-08T09:22:58;63.63;;;31.55;;
43552;SDS011;29153;42.696;23.218;2023-01-08T09:25:28;83.50;;;38.48;;
43552;SDS011;29153;42.696;23.218;2023-01-08T09:28:03;83.45;;;37.25;;
43552;SDS011;29153;42.696;23.218;2023-01-08T09:30:32;61.63;;;29.82;;
43552;SDS011;29153;42.696;23.218;2023-01-08T09:33:00;57.17;;;30.12;;
43552;SDS011;29153;42.696;23.218;2023-01-08T09:35:30;48.98;;;24.27;;
43552;SDS011;29153;42.696;23.218;2023-01-08T09:37:58;55.88;;;28.57;;
43552;SDS011;29153;42.696;23.218;2023-01-08T09:40:29;58.92;;;29.23;;
43552;SDS011;29153;42.696;23.218;2023-01-08T09:42:59;58.30;;;30.75;;
43552;SDS011;29153;42.696;23.218;2023-01-08T09:45:30;64.47;;;30.88;;
43552;SDS011;29153;42.696;23.218;2023-01-08T09:48:11;61.48;;;30.37;;
43552;SDS011;29153;42.696;23.218;2023-01-08T09:50:34;55.10;;;27.95;;
43552;SDS011;29153;42.696;23.218;2023-01-08T09:53:02;63.08;;;31.48;;
43552;SDS011;29153;42.696;23.218;2023-01-08T09:55:31;58.58;;;29.82;;
43552;SDS011;29153;42.696;23.218;2023-01-08T09:57:59;66.05;;;31.35;;
43552;SDS011;29153;42.696;23.218;2023-01-08T10:00:28;58.83;;;29.90;;
43552;SDS011;29153;42.696;23.218;2023-01-08T10:02:57;58.42;;;29.95;;
43552;SDS011;29153;42.696;23.218;2023-01-08T10:05:25;58.85;;;28.35;;
43552;SDS011;29153;42.696;23.218;2023-01-08T10:07:53;57.60;;;27.65;;
43552;SDS011;29153;42.696;23.218;2023-01-08T10:10:29;61.37;;;30.32;;
43552;SDS011;29153;42.696;23.218;2023-01-08T10:12:58;57.90;;;30.80;;
43552;SDS011;29153;42.696;23.218;2023-01-08T10:15:25;61.75;;;29.92;;
43552;SDS011;29153;42.696;23.218;2023-01-08T10:18:03;64.27;;;29.87;;
43552;SDS011;29153;42.696;23.218;2023-01-08T10:20:32;60.80;;;28.35;;
43552;SDS011;29153;42.696;23.218;2023-01-08T10:23:13;56.42;;;28.55;;
43552;SDS011;29153;42.696;23.218;2023-01-08T10:26:01;54.27;;;26.00;;
43552;SDS011;29153;42.696;23.218;2023-01-08T10:28:20;54.03;;;26.12;;
43552;SDS011;29153;42.696;23.218;2023-01-08T10:31:02;44.83;;;25.97;;
43552;SDS011;29153;42.696;23.218;2023-01-08T10:33:38;55.40;;;27.02;;
43552;SDS011;29153;42.696;23.218;2023-01-08T10:36:12;59.30;;;29.82;;
43552;SDS011;29153;42.696;23.218;2023-01-08T10:38:48;64.17;;;33.78;;
43552;SDS011;29153;42.696;23.218;2023-01-08T10:41:17;59.67;;;28.45;;
43552;SDS011;29153;42.696;23.218;2023-01-08T10:46:30;56.88;;;29.00;;
43552;SDS011;29153;42.696;23.218;2023-01-08T10:49:00;62.73;;;30.30;;
43552;SDS011;29153;42.696;23.218;2023-01-08T10:51:30;62.33;;;30.27;;
43552;SDS011;29153;42.696;23.218;2023-01-08T10:54:10;63.48;;;28.77;;
43552;SDS011;29153;42.696;23.218;2023-01-08T10:56:38;65.75;;;31.27;;
43552;SDS011;29153;42.696;23.218;2023-01-08T10:59:00;56.88;;;29.80;;
43552;SDS011;29153;42.696;23.218;2023-01-08T11:01:28;79.97;;;33.90;;
43552;SDS011;29153;42.696;23.218;2023-01-08T11:04:00;57.65;;;29.90;;
43552;SDS011;29153;42.696;23.218;2023-01-08T11:06:32;55.58;;;27.95;;
43552;SDS011;29153;42.696;23.218;2023-01-08T11:14:29;61.45;;;28.10;;
43552;SDS011;29153;42.696;23.218;2023-01-08T11:16:59;60.88;;;29.40;;
43552;SDS011;29153;42.696;23.218;2023-01-08T11:19:30;54.33;;;28.23;;
43552;SDS011;29153;42.696;23.218;2023-01-08T11:22:00;54.35;;;29.63;;
43552;SDS011;29153;42.696;23.218;2023-01-08T11:24:31;58.35;;;28.42;;
43552;SDS011;29153;42.696;23.218;2023-01-08T11:27:46;55.55;;;27.80;;
43552;SDS011;29153;42.696;23.218;2023-01-08T11:29:42;60.43;;;28.90;;
43552;SDS011;29153;42.696;23.218;2023-01-08T11:34:50;55.80;;;26.85;;
43552;SDS011;29153;42.696;23.218;2023-01-08T11:37:38;53.83;;;27.07;;
43552;SDS011;29153;42.696;23.218;2023-01-08T11:40:16;54.30;;;26.48;;
43552;SDS011;29153;42.696;23.218;2023-01-08T11:42:59;55.23;;;26.17;;
43552;SDS011;29153;42.696;23.218;2023-01-08T11:45:52;48.75;;;25.15;;
43552;SDS011;29153;42.696;23.218;2023-01-08T11:53:46;54.93;;;27.45;;
43552;SDS011;29153;42.696;23.218;2023-01-08T11:56:53;55.45;;;26.65;;
43552;SDS011;29153;42.696;23.218;2023-01-08T11:59:34;54.30;;;27.95;;
43552;SDS011;29153;42.696;23.218;2023-01-08T12:02:16;50.35;;;26.57;;
43552;SDS011;29153;42.696;23.218;2023-01-08T12:04:51;49.60;;;25.43;;
43552;SDS011;29153;42.696;23.218;2023-01-08T12:07:34;53.15;;;25.97;;
43552;SDS011;29153;42.696;23.218;2023-01-08T12:10:00;54.75;;;27.30;;
43552;SDS011;29153;42.696;23.218;2023-01-08T12:12:47;53.20;;;27.00;;
43552;SDS011;29153;42.696;23.218;2023-01-08T12:18:56;52.05;;;27.15;;
43552;SDS011;29153;42.696;23.218;2023-01-08T12:20:55;47.55;;;25.17;;
43552;SDS011;29153;42.696;23.218;2023-01-08T12:26:10;54.70;;;26.45;;
43552;SDS011;29153;42.696;23.218;2023-01-08T12:31:27;55.63;;;25.85;;
43552;SDS011;29153;42.696;23.218;2023-01-08T12:34:14;48.85;;;25.48;;
43552;SDS011;29153;42.696;23.218;2023-01-08T12:36:40;52.40;;;25.55;;
43552;SDS011;29153;42.696;23.218;2023-01-08T12:39:15;47.48;;;25.52;;
43552;SDS011;29153;42.696;23.218;2023-01-08T12:41:43;52.50;;;26.25;;
43552;SDS011;29153;42.696;23.218;2023-01-08T12:44:13;50.60;;;25.90;;
43552;SDS011;29153;42.696;23.218;2023-01-08T12:46:43;49.77;;;24.95;;
43552;SDS011;29153;42.696;23.218;2023-01-08T12:49:12;48.92;;;23.38;;
43552;SDS011;29153;42.696;23.218;2023-01-08T12:55:08;45.70;;;23.30;;
43552;SDS011;29153;42.696;23.218;2023-01-08T12:57:15;46.15;;;23.95;;
43552;SDS011;29153;42.696;23.218;2023-01-08T13:02:31;42.90;;;22.37;;
43552;SDS011;29153;42.696;23.218;2023-01-08T13:07:45;47.55;;;23.07;;
43552;SDS011;29153;42.696;23.218;2023-01-08T13:10:40;41.50;;;20.90;;
43552;SDS011;29153;42.696;23.218;2023-01-08T13:12:49;45.20;;;21.87;;
43552;SDS011;29153;42.696;23.218;2023-01-08T13:15:24;42.67;;;21.02;;
43552;SDS011;29153;42.696;23.218;2023-01-08T13:17:51;36.42;;;18.60;;
43552;SDS011;29153;42.696;23.218;2023-01-08T13:20:21;43.52;;;20.35;;
43552;SDS011;29153;42.696;23.218;2023-01-08T13:22:54;37.15;;;19.48;;
43552;SDS011;29153;42.696;23.218;2023-01-08T13:27:54;35.52;;;17.67;;
43552;SDS011;29153;42.696;23.218;2023-01-08T13:30:36;39.08;;;19.67;;
43552;SDS011;29153;42.696;23.218;2023-01-08T13:33:24;32.78;;;16.35;;
43552;SDS011;29153;42.696;23.218;2023-01-08T13:44:05;31.65;;;17.48;;
43552;SDS011;29153;42.696;23.218;2023-01-08T13:46:37;37.40;;;18.10;;
43552;SDS011;29153;42.696;23.218;2023-01-08T13:49:06;36.65;;;17.02;;
43552;SDS011;29153;42.696;23.218;2023-01-08T13:51:40;33.65;;;18.17;;
43552;SDS011;29153;42.696;23.218;2023-01-08T13:56:51;49.15;;;22.67;;
43552;SDS011;29153;42.696;23.218;2023-01-08T13:59:36;45.28;;;21.90;;
43552;SDS011;29153;42.696;23.218;2023-01-08T14:04:52;44.83;;;21.85;;
43552;SDS011;29153;42.696;23.218;2023-01-08T14:07:20;41.02;;;21.40;;
43552;SDS011;29153;42.696;23.218;2023-01-08T14:09:48;48.33;;;23.40;;
43552;SDS011;29153;42.696;23.218;2023-01-08T14:12:21;45.78;;;21.57;;
43552;SDS011;29153;42.696;23.218;2023-01-08T14:14:51;38.88;;;21.23;;
43552;SDS011;29153;42.696;23.218;2023-01-08T14:17:20;51.33;;;23.60;;
43552;SDS011;29153;42.696;23.218;2023-01-08T14:19:50;44.42;;;22.27;;
43552;SDS011;29153;42.696;23.218;2023-01-08T14:22:30;41.75;;;21.82;;
43552;SDS011;29153;42.696;23.218;2023-01-08T14:24:55;45.38;;;20.75;;
43552;SDS011;29153;42.696;23.218;2023-01-08T14:27:26;35.90;;;19.12;;
43552;SDS011;29153;42.696;23.218;2023-01-08T14:29:55;46.98;;;21.62;;
43552;SDS011;29153;42.696;23.218;2023-01-08T14:32:24;42.05;;;21.17;;
43552;SDS011;29153;42.696;23.218;2023-01-08T14:34:57;44.60;;;22.10;;
43552;SDS011;29153;42.696;23.218;2023-01-08T14:37:26;48.63;;;22.62;;
43552;SDS011;29153;42.696;23.218;2023-01-08T14:39:54;47.73;;;21.73;;
43552;SDS011;29153;42.696;23.218;2023-01-08T14:42:26;58.65;;;26.73;;
43552;SDS011;29153;42.696;23.218;2023-01-08T14:47:58;49.35;;;22.25;;
43552;SDS011;29153;42.696;23.218;2023-01-08T14:52:57;37.55;;;18.73;;
43552;SDS011;29153;42.696;23.218;2023-01-08T14:55:27;38.95;;;18.32;;
43552;SDS011;29153;42.696;23.218;2023-01-08T14:57:56;35.78;;;18.12;;
43552;SDS011;29153;42.696;23.218;2023-01-08T15:00:31;36.53;;;16.82;;
43552;SDS011;29153;42.696;23.218;2023-01-08T15:02:57;35.52;;;17.17;;
43552;SDS011;29153;42.696;23.218;2023-01-08T15:07:55;38.45;;;16.93;;
43552;SDS011;29153;42.696;23.218;2023-01-08T15:10:32;31.75;;;15.63;;
43552;SDS011;29153;42.696;23.218;2023-01-08T15:13:01;33.28;;;15.63;;
43552;SDS011;29153;42.696;23.218;2023-01-08T15:15:32;37.53;;;16.82;;
43552;SDS011;29153;42.696;23.218;2023-01-08T15:18:03;34.95;;;16.97;;
43552;SDS011;29153;42.696;23.218;2023-01-08T15:20:32;35.17;;;15.98;;
43552;SDS011;29153;42.696;23.218;2023-01-08T15:23:01;34.65;;;16.00;;
43552;SDS011;29153;42.696;23.218;2023-01-08T15:25:29;35.80;;;17.25;;
43552;SDS011;29153;42.696;23.218;2023-01-08T15:27:58;36.03;;;16.80;;
43552;SDS011;29153;42.696;23.218;2023-01-08T15:30:32;33.02;;;15.50;;
43552;SDS011;29153;42.696;23.218;2023-01-08T15:33:14;33.33;;;16.42;;
43552;SDS011;29153;42.696;23.218;2023-01-08T15:35:34;32.85;;;16.23;;
43552;SDS011;29153;42.696;23.218;2023-01-08T15:38:01;36.23;;;15.72;;
43552;SDS011;29153;42.696;23.218;2023-01-08T15:40:29;32.15;;;15.43;;
43552;SDS011;29153;42.696;23.218;2023-01-08T15:42:56;32.63;;;16.48;;
43552;SDS011;29153;42.696;23.218;2023-01-08T15:45:37;32.85;;;15.10;;
43552;SDS011;29153;42.696;23.218;2023-01-08T15:48:07;34.05;;;16.25;;